Terminal Aerodrome Forecast
Issued by NWS Tampa Bay Area, FL

Home | Current Version | Previous Version | Text Only | Print | Product List | Glossary On
Versions: 1 2 3 4 5 6 7 8 9 10 11 12 13 14 15 16 17 18
000
FTUS42 KTBW 300525
TAFSRQ
TAF
KSRQ 300525Z 3006/3106 07005KT P6SM FEW010 BKN200
     FM301400 11007KT P6SM FEW020 SCT050 BKN200
     FM301600 11007KT P6SM VCTS SCT020CB BKN050
      TEMPO 3016/3020 3SM SHRA BKN020
     FM302000 09008KT P6SM VCTS SCT020CB BKN050
      TEMPO 3020/3024 3SM SHRA BKN020
     FM310100 11007KT P6SM VCSH SCT020 BKN050=

USA.gov is the U.S. government's official web portal to all federal, state and local government web resources and services.